Parkerton, Wyoming
Current Conditions -  °F | °C
As of 4:16 AM on Wednesday 26 Nov 2014 (Local Time) from KCPR Reporting Station
Light Snow Light Snow  
Wind Chill: 23°   Ceiling: 5000
Heat Index: 23°   Visibility: 4mi
Dew Point: 20°   Wind: 3mph
Humidity: 88%   Direction: 170°S
Pressure: 30.13"   Gusts: NA
Location:  43.0973°N, 105.88°W
Report Text: KCPR 261116Z AUTO 17003KT 4SM -SN BR FEW043 OVC050 M05/M07 A3013 RMK AO2 P0000 T10501067
Loading
Personal Weather Stations






























Interactive Weather Map New forecast layout! Learn more

10-Day Weather Forecast

Advertisements
Track Severe Weather on mobile